createdAt,value
2022-10-23T00:01:31.195Z,101614.22
2022-10-23T00:04:00.101Z,101610.97
2022-10-23T00:06:28.051Z,101608.53
2022-10-23T00:08:55.162Z,101598.31
2022-10-23T00:11:24.415Z,101604.97
2022-10-23T00:13:53.219Z,101605.78
2022-10-23T00:16:19.538Z,101607.66
2022-10-23T00:18:45.851Z,101606.53
2022-10-23T00:21:14.049Z,101605.66
2022-10-23T00:23:41.092Z,101610.13
2022-10-23T00:26:08.375Z,101603.16
2022-10-23T00:28:34.930Z,101606.09
2022-10-23T00:31:03.004Z,101607.94
2022-10-23T00:33:29.484Z,101604.47
2022-10-23T00:35:55.952Z,101607.63
2022-10-23T00:38:22.535Z,101604.94
2022-10-23T00:43:22.365Z,101597.41
2022-10-23T00:45:49.039Z,101598.22
2022-10-23T00:48:16.204Z,101591.25
2022-10-23T00:50:43.009Z,101596.03
2022-10-23T00:53:11.675Z,101585.06
2022-10-23T00:55:39.555Z,101593.34
2022-10-23T00:58:06.041Z,101594.41
2022-10-23T01:00:52.404Z,101593.28
2022-10-23T01:03:22.904Z,101592.22
2022-10-23T01:06:12.582Z,101587.13
2022-10-23T01:08:50.592Z,101582.56
2022-10-23T01:11:20.488Z,101593.78
2022-10-23T01:14:22.967Z,101595.31
2022-10-23T01:16:55.235Z,101597.44
2022-10-23T01:19:46.772Z,101593.38
2022-10-23T01:22:44.431Z,101584.22
2022-10-23T01:25:38.746Z,101580.75
2022-10-23T01:28:11.754Z,101591.44
2022-10-23T01:30:42.791Z,101586.63
2022-10-23T01:33:25.641Z,101584.22
2022-10-23T01:36:16.567Z,101581.22
2022-10-23T01:38:56.251Z,101574.25
2022-10-23T01:41:36.307Z,101572.63
2022-10-23T01:44:17.614Z,101569.69
2022-10-23T01:46:46.828Z,101562.47
2022-10-23T01:49:14.850Z,101565.97
2022-10-23T01:51:45.543Z,101567.84
2022-10-23T01:54:14.256Z,101571.00
2022-10-23T01:56:44.911Z,101560.28
2022-10-23T01:59:18.471Z,101557.88
2022-10-23T02:01:49.325Z,101558.91
2022-10-23T02:04:23.504Z,101548.44
2022-10-23T02:06:49.895Z,101538.00
2022-10-23T02:09:16.410Z,101536.09
2022-10-23T02:12:21.203Z,101536.94
2022-10-23T02:15:00.477Z,101536.44
2022-10-23T02:17:42.446Z,101529.22
2022-10-23T02:20:19.718Z,101530.53
2022-10-23T02:22:56.595Z,101529.97
2022-10-23T02:25:33.478Z,101526.44
2022-10-23T02:28:06.005Z,101522.41
2022-10-23T02:30:35.660Z,101515.44
2022-10-23T02:33:05.031Z,101505.28
2022-10-23T02:35:31.607Z,101502.88
2022-10-23T02:38:00.764Z,101496.69
2022-10-23T02:40:41.749Z,101497.53
2022-10-23T02:43:24.499Z,101496.19
2022-10-23T02:46:02.451Z,101507.72
2022-10-23T02:48:43.945Z,101503.66
2022-10-23T02:51:18.788Z,101500.41
2022-10-23T02:54:01.288Z,101508.13
2022-10-23T02:56:36.642Z,101501.44
2022-10-23T02:59:13.065Z,101505.16
2022-10-23T03:01:49.592Z,101502.69
2022-10-23T03:04:19.008Z,101491.47
2022-10-23T03:06:45.791Z,101485.84
2022-10-23T03:09:12.178Z,101491.19
2022-10-23T03:11:38.515Z,101485.00
2022-10-23T03:14:04.962Z,101478.91
2022-10-23T03:16:31.295Z,101478.34
2022-10-23T03:18:57.682Z,101470.31
2022-10-23T03:21:24.111Z,101473.25
2022-10-23T03:23:50.447Z,101465.53
2022-10-23T03:26:17.108Z,101465.81
2022-10-23T03:28:43.479Z,101463.47
2022-10-23T03:31:09.880Z,101465.66
2022-10-23T03:33:36.300Z,101467.34
2022-10-23T03:36:02.837Z,101463.34
2022-10-23T03:38:29.205Z,101462.56
2022-10-23T03:40:55.602Z,101457.19
2022-10-23T03:43:21.903Z,101455.63
2022-10-23T03:45:48.313Z,101444.34
2022-10-23T03:48:14.804Z,101444.34
2022-10-23T03:50:41.117Z,101447.53
2022-10-23T03:53:07.454Z,101448.34
2022-10-23T03:55:33.777Z,101437.34
2022-10-23T03:58:00.127Z,101432.81
2022-10-23T04:00:26.434Z,101427.47
2022-10-23T04:02:52.768Z,101427.72
2022-10-23T04:05:19.099Z,101416.19
2022-10-23T04:07:45.448Z,101408.97
2022-10-23T04:10:11.810Z,101397.44
2022-10-23T04:12:38.119Z,101402.53
2022-10-23T04:15:04.986Z,101400.69
2022-10-23T04:17:31.367Z,101402.53
2022-10-23T04:19:57.814Z,101394.28
2022-10-23T04:22:26.142Z,101389.72
2022-10-23T04:24:54.680Z,101400.44
2022-10-23T04:27:21.031Z,101385.41
2022-10-23T04:29:47.401Z,101386.25
2022-10-23T04:32:13.750Z,101387.03
2022-10-23T04:34:40.059Z,101381.66
2022-10-23T04:37:06.386Z,101379.56
2022-10-23T04:39:32.692Z,101370.97
2022-10-23T04:41:59.016Z,101372.59
2022-10-23T04:44:25.320Z,101369.66
2022-10-23T04:46:51.659Z,101364.03
2022-10-23T04:49:18.004Z,101371.25
2022-10-23T04:51:44.380Z,101372.09
2022-10-23T04:54:11.860Z,101366.22
2022-10-23T04:56:38.316Z,101363.56
2022-10-23T05:01:32.054Z,101357.63
2022-10-23T05:03:58.447Z,101349.59
2022-10-23T05:06:24.808Z,101354.47
2022-10-23T05:08:51.208Z,101350.16
2022-10-23T05:11:17.517Z,101355.50
2022-10-23T05:13:44.054Z,101350.41
2022-10-23T05:16:12.892Z,101360.03
2022-10-23T05:18:46.592Z,101357.66
2022-10-23T05:21:23.417Z,101352.06
2022-10-23T05:23:50.680Z,101343.78
2022-10-23T05:26:17.096Z,101355.31
2022-10-23T05:28:43.412Z,101356.66
2022-10-23T05:31:09.851Z,101352.94
2022-10-23T05:33:36.928Z,101350.31
2022-10-23T05:36:03.676Z,101353.03
2022-10-23T05:38:33.517Z,101354.13
2022-10-23T05:41:00.020Z,101338.84
2022-10-23T05:43:27.264Z,101342.09
2022-10-23T05:45:53.955Z,101346.13
2022-10-23T05:48:29.754Z,101351.91
2022-10-23T05:51:07.561Z,101342.53
2022-10-23T05:53:36.210Z,101347.41
2022-10-23T05:56:08.657Z,101343.44
2022-10-23T05:58:35.108Z,101346.41
2022-10-23T06:01:08.869Z,101329.25
2022-10-23T06:03:36.851Z,101323.94
2022-10-23T06:06:04.026Z,101325.56
2022-10-23T06:08:31.459Z,101320.44
2022-10-23T06:10:57.839Z,101328.22
2022-10-23T06:13:24.203Z,101329.81
2022-10-23T06:15:50.556Z,101321.28
2022-10-23T06:18:16.948Z,101316.47
2022-10-23T06:20:43.259Z,101313.78
2022-10-23T06:23:09.571Z,101300.38
2022-10-23T06:25:35.893Z,101306.00
2022-10-23T06:28:02.239Z,101298.75
2022-10-23T06:30:28.721Z,101305.19
2022-10-23T06:32:55.513Z,101290.72
2022-10-23T06:35:21.840Z,101293.94
2022-10-23T06:37:48.171Z,101292.88
2022-10-23T06:40:14.608Z,101287.50
2022-10-23T06:42:41.174Z,101287.25
2022-10-23T06:45:07.973Z,101293.97
2022-10-23T06:47:34.534Z,101283.25
2022-10-23T06:50:00.909Z,101282.97
2022-10-23T06:52:47.779Z,101278.16
2022-10-23T06:55:14.842Z,101276.84
2022-10-23T06:57:41.862Z,101272.56
2022-10-23T07:00:09.547Z,101272.06
2022-10-23T07:02:36.509Z,101270.72
2022-10-23T07:05:03.250Z,101273.94
2022-10-23T07:07:30.658Z,101273.69
2022-10-23T07:09:56.980Z,101268.88
2022-10-23T07:12:23.348Z,101264.84
2022-10-23T07:14:49.691Z,101272.38
2022-10-23T07:17:16.102Z,101280.19
2022-10-23T07:19:42.466Z,101273.50
2022-10-23T07:22:10.745Z,101277.81
2022-10-23T07:24:40.192Z,101263.59
2022-10-23T07:27:06.910Z,101265.22
2022-10-23T07:29:33.797Z,101269.78
2022-10-23T07:32:04.394Z,101268.19
2022-10-23T07:34:31.995Z,101263.91
2022-10-23T07:36:58.316Z,101263.66
2022-10-23T07:39:24.649Z,101262.31
2022-10-23T07:41:50.953Z,101259.38
2022-10-23T07:44:17.543Z,101259.09
2022-10-23T07:46:43.854Z,101257.22
2022-10-23T07:49:11.187Z,101267.19
2022-10-23T07:51:37.520Z,101261.81
2022-10-23T07:54:03.937Z,101255.94
2022-10-23T07:56:31.329Z,101247.88
2022-10-23T07:58:58.019Z,101249.75
2022-10-23T08:01:38.443Z,101237.94
2022-10-23T08:04:05.699Z,101236.06
2022-10-23T08:06:35.322Z,101242.78
2022-10-23T08:09:05.384Z,101237.91
2022-10-23T08:11:35.404Z,101239.25
2022-10-23T08:14:04.559Z,101236.28
2022-10-23T08:16:32.052Z,101232.50
2022-10-23T08:18:58.480Z,101236.00
2022-10-23T08:21:24.821Z,101222.50
2022-10-23T08:23:56.812Z,101230.56
2022-10-23T08:26:24.601Z,101225.69
2022-10-23T08:28:54.208Z,101232.97
2022-10-23T08:31:21.621Z,101232.66
2022-10-23T08:36:22.070Z,101219.97
2022-10-23T08:38:48.692Z,101219.41
2022-10-23T08:41:25.261Z,101210.50
2022-10-23T08:43:58.496Z,101205.88
2022-10-23T08:46:30.032Z,101197.78
2022-10-23T08:49:20.513Z,101193.16
2022-10-23T08:51:50.330Z,101191.25
2022-10-23T08:54:28.463Z,101183.16
2022-10-23T08:57:03.372Z,101181.22
2022-10-23T08:59:56.241Z,101180.91
2022-10-23T09:02:30.431Z,101183.03
2022-10-23T09:04:58.486Z,101184.81
2022-10-23T09:07:43.266Z,101170.44
2022-10-23T09:10:51.542Z,101169.56
2022-10-23T09:13:48.832Z,101161.94
2022-10-23T09:16:30.361Z,101156.22
2022-10-23T09:18:57.973Z,101151.88
2022-10-23T09:21:28.805Z,101158.31
2022-10-23T09:23:56.040Z,101153.94
2022-10-23T09:26:22.491Z,101149.66
2022-10-23T09:28:51.452Z,101146.88
2022-10-23T09:31:19.285Z,101145.78
2022-10-23T09:34:01.415Z,101143.91
2022-10-23T09:36:29.300Z,101145.00
2022-10-23T09:38:58.841Z,101139.31
2022-10-23T09:41:29.770Z,101148.19
2022-10-23T09:44:17.473Z,101139.03
2022-10-23T09:46:46.823Z,101135.22
2022-10-23T09:49:23.771Z,101121.22
2022-10-23T09:51:54.557Z,101130.72
2022-10-23T09:54:24.056Z,101117.75
2022-10-23T09:56:52.999Z,101117.19
2022-10-23T09:59:27.260Z,101107.41
2022-10-23T10:01:57.260Z,101114.34
2022-10-23T10:04:38.292Z,101119.69
2022-10-23T10:07:17.730Z,101114.22
2022-10-23T10:09:44.020Z,101106.06
2022-10-23T10:12:28.674Z,101106.00
2022-10-23T10:15:04.208Z,101110.25
2022-10-23T10:17:43.429Z,101096.19
2022-10-23T10:20:25.545Z,101094.25
2022-10-23T10:23:00.731Z,101085.06
2022-10-23T10:25:49.869Z,101088.47
2022-10-23T10:28:37.556Z,101088.19
2022-10-23T10:31:37.949Z,101074.13
2022-10-23T10:34:14.273Z,101068.41
2022-10-23T10:36:55.372Z,101057.84
2022-10-23T10:39:37.906Z,101061.84
2022-10-23T10:43:01.713Z,101051.78
2022-10-23T10:45:40.886Z,101053.91
2022-10-23T10:48:31.325Z,101044.09
2022-10-23T10:51:10.657Z,101039.72
2022-10-23T10:53:55.678Z,101020.22
2022-10-23T10:56:25.131Z,101007.75
2022-10-23T10:58:56.411Z,101002.06
2022-10-23T11:01:35.034Z,101005.53
2022-10-23T11:04:23.472Z,100996.06
2022-10-23T11:06:53.821Z,101005.66
2022-10-23T11:09:22.143Z,101002.38
2022-10-23T11:11:49.055Z,101005.47
2022-10-23T11:14:24.090Z,100998.91
2022-10-23T11:17:16.868Z,100994.00
2022-10-23T11:20:00.911Z,100989.88
2022-10-23T11:23:12.496Z,100990.09
2022-10-23T11:26:08.297Z,100989.00
2022-10-23T11:28:53.832Z,100982.41
2022-10-23T11:31:51.559Z,100972.69
2022-10-23T11:34:54.944Z,100962.47
2022-10-23T11:37:22.896Z,100952.16
2022-10-23T11:40:04.141Z,100947.84
2022-10-23T11:42:33.901Z,100940.50
2022-10-23T11:45:00.503Z,100941.25
2022-10-23T11:47:39.933Z,100927.97
2022-10-23T11:50:06.590Z,100930.44
2022-10-23T11:52:38.749Z,100920.63
2022-10-23T11:55:29.326Z,100915.44
2022-10-23T11:58:04.850Z,100921.84
2022-10-23T12:00:33.862Z,100912.53
2022-10-23T12:03:01.714Z,100903.63
2022-10-23T12:05:40.405Z,100898.88
2022-10-23T12:08:22.022Z,100896.81
2022-10-23T12:10:55.109Z,100902.41
2022-10-23T12:13:38.572Z,100895.59
2022-10-23T12:16:07.507Z,100894.63
2022-10-23T12:18:44.403Z,100901.66
2022-10-23T12:24:03.567Z,100887.78
2022-10-23T12:26:54.189Z,100877.47
2022-10-23T12:29:46.736Z,100869.34
2022-10-23T12:32:34.488Z,100855.78
2022-10-23T12:35:25.765Z,100853.84
2022-10-23T12:38:14.912Z,100863.59
2022-10-23T12:40:45.578Z,100853.66
2022-10-23T12:43:32.905Z,100858.75
2022-10-23T12:46:21.870Z,100854.31
2022-10-23T12:48:50.488Z,100837.13
2022-10-23T12:51:34.641Z,100841.13
2022-10-23T12:54:02.952Z,100836.94
2022-10-23T12:56:35.505Z,100829.16
2022-10-23T12:59:02.660Z,100827.88
2022-10-23T13:01:31.535Z,100820.22
2022-10-23T13:04:02.548Z,100807.97
2022-10-23T13:06:29.283Z,100806.84
2022-10-23T13:08:57.093Z,100793.75
2022-10-23T13:11:25.665Z,100790.13
2022-10-23T13:13:52.595Z,100797.13
2022-10-23T13:16:22.158Z,100795.38
2022-10-23T13:18:48.957Z,100790.56
2022-10-23T13:21:23.737Z,100791.88
2022-10-23T13:23:51.529Z,100781.53
2022-10-23T13:26:32.311Z,100780.41
2022-10-23T13:29:00.696Z,100768.59
2022-10-23T13:31:35.343Z,100762.22
2022-10-23T13:34:01.650Z,100752.16
2022-10-23T13:36:30.541Z,100745.34
2022-10-23T13:39:09.064Z,100737.16
2022-10-23T13:41:40.881Z,100734.94
2022-10-23T13:44:07.395Z,100725.81
2022-10-23T13:46:33.716Z,100729.50
2022-10-23T13:49:00.157Z,100723.13
2022-10-23T13:51:32.445Z,100716.25
2022-10-23T13:53:58.836Z,100715.13
2022-10-23T13:56:27.540Z,100711.16
2022-10-23T13:58:54.256Z,100709.41
2022-10-23T14:01:24.556Z,100696.16
2022-10-23T14:03:52.388Z,100701.59
2022-10-23T14:06:18.732Z,100703.50
2022-10-23T14:08:45.595Z,100700.94
2022-10-23T14:13:41.702Z,100689.94
2022-10-23T14:16:11.464Z,100692.81
2022-10-23T14:18:37.812Z,100684.22
2022-10-23T14:21:06.377Z,100687.84
2022-10-23T14:23:32.819Z,100683.25
2022-10-23T14:26:11.469Z,100668.56
2022-10-23T14:28:38.410Z,100674.44
2022-10-23T14:31:23.128Z,100673.66
2022-10-23T14:33:55.933Z,100681.06
2022-10-23T14:36:23.276Z,100684.91
2022-10-23T14:38:53.569Z,100681.25
2022-10-23T14:41:21.841Z,100686.03
2022-10-23T14:43:48.211Z,100671.84
2022-10-23T14:46:17.147Z,100673.34
2022-10-23T14:48:46.210Z,100681.66
2022-10-23T14:51:28.592Z,100687.22
2022-10-23T14:54:01.693Z,100670.94
2022-10-23T14:56:34.069Z,100669.22
2022-10-23T14:59:03.786Z,100680.41
2022-10-23T15:01:36.561Z,100669.84
2022-10-23T15:04:03.375Z,100665.25
2022-10-23T15:06:29.947Z,100640.84
2022-10-23T15:08:56.329Z,100649.13
2022-10-23T15:11:24.221Z,100637.34
2022-10-23T15:13:50.861Z,100642.63
2022-10-23T15:16:17.707Z,100635.31
2022-10-23T15:18:44.009Z,100643.75
2022-10-23T15:21:10.453Z,100641.53
2022-10-23T15:23:42.208Z,100643.31
2022-10-23T15:26:12.633Z,100635.66
2022-10-23T15:28:39.068Z,100624.19
2022-10-23T15:31:06.311Z,100627.53
2022-10-23T15:33:32.620Z,100616.06
2022-10-23T15:35:58.962Z,100615.88
2022-10-23T15:38:26.039Z,100607.13
2022-10-23T15:40:58.259Z,100606.19
2022-10-23T15:43:24.578Z,100606.84
2022-10-23T15:45:50.906Z,100602.06
2022-10-23T15:48:17.365Z,100600.31
2022-10-23T15:50:43.743Z,100601.75
2022-10-23T15:53:10.104Z,100603.63
2022-10-23T15:55:36.651Z,100596.63
2022-10-23T15:58:04.834Z,100590.75
2022-10-23T16:03:06.984Z,100575.44
2022-10-23T16:05:33.320Z,100560.31
2022-10-23T16:07:59.716Z,100557.13
2022-10-23T16:10:26.074Z,100551.53
2022-10-23T16:12:52.520Z,100551.06
2022-10-23T16:15:18.902Z,100549.00
2022-10-23T16:17:45.644Z,100559.69
2022-10-23T16:20:12.235Z,100564.28
2022-10-23T16:22:41.398Z,100555.69
2022-10-23T16:25:10.726Z,100566.03
2022-10-23T16:27:37.056Z,100564.41
2022-10-23T16:30:06.127Z,100561.72
2022-10-23T16:32:32.527Z,100570.31
2022-10-23T16:34:58.830Z,100560.94
2022-10-23T16:37:25.168Z,100551.22
2022-10-23T16:39:51.495Z,100555.03
2022-10-23T16:44:44.136Z,100538.66
2022-10-23T16:47:10.694Z,100552.81
2022-10-23T16:49:37.087Z,100544.53
2022-10-23T16:52:03.463Z,100540.06
2022-10-23T16:54:29.807Z,100543.09
2022-10-23T16:56:56.158Z,100545.78
2022-10-23T16:59:22.483Z,100543.56
2022-10-23T17:01:48.984Z,100546.94
2022-10-23T17:04:15.431Z,100552.97
2022-10-23T17:06:41.880Z,100555.97
2022-10-23T17:09:08.197Z,100541.50
2022-10-23T17:11:39.871Z,100556.91
2022-10-23T17:14:11.156Z,100558.34
2022-10-23T17:16:41.217Z,100554.84
2022-10-23T17:19:20.963Z,100557.09
2022-10-23T17:21:54.645Z,100556.75
2022-10-23T17:24:21.699Z,100548.03
2022-10-23T17:26:48.453Z,100550.41
2022-10-23T17:29:15.395Z,100551.69
2022-10-23T17:31:45.089Z,100544.47
2022-10-23T17:34:13.945Z,100545.91
2022-10-23T17:36:43.663Z,100541.00
2022-10-23T17:39:12.183Z,100540.50
2022-10-23T17:41:38.993Z,100551.81
2022-10-23T17:44:05.433Z,100549.72
2022-10-23T17:46:32.131Z,100532.41
2022-10-23T17:48:59.973Z,100545.91
2022-10-23T17:51:30.461Z,100550.22
2022-10-23T17:54:00.828Z,100545.63
2022-10-23T17:56:29.688Z,100545.44
2022-10-23T17:59:00.852Z,100544.50
2022-10-23T18:01:29.069Z,100541.31
2022-10-23T18:03:56.880Z,100530.19
2022-10-23T18:06:29.548Z,100530.97
2022-10-23T18:08:56.372Z,100536.84
2022-10-23T18:11:25.299Z,100526.53
2022-10-23T18:13:52.480Z,100527.63
2022-10-23T18:16:19.817Z,100522.38
2022-10-23T18:18:51.800Z,100522.72
2022-10-23T18:21:20.273Z,100524.47
2022-10-23T18:23:47.185Z,100530.34
2022-10-23T18:26:34.812Z,100521.91
2022-10-23T18:29:03.391Z,100515.38
2022-10-23T18:31:30.269Z,100523.69
2022-10-23T18:33:58.685Z,100523.50
2022-10-23T18:36:29.049Z,100505.84
2022-10-23T18:41:28.023Z,100496.31
2022-10-23T18:43:54.710Z,100499.78
2022-10-23T18:46:21.812Z,100508.25
2022-10-23T18:48:50.634Z,100496.75
2022-10-23T18:51:19.850Z,100481.81
2022-10-23T18:53:46.945Z,100479.72
2022-10-23T18:56:22.941Z,100493.13
2022-10-23T18:58:57.535Z,100492.78
2022-10-23T19:01:26.841Z,100487.06
2022-10-23T19:03:54.315Z,100500.28
2022-10-23T19:06:22.644Z,100484.03
2022-10-23T19:08:49.704Z,100488.97
2022-10-23T19:11:20.975Z,100462.53
2022-10-23T19:13:47.417Z,100425.94
2022-10-23T19:16:34.449Z,100469.25
2022-10-23T19:19:15.347Z,100477.22
2022-10-23T19:21:42.450Z,100456.81
2022-10-23T19:24:14.475Z,100459.38
2022-10-23T19:26:42.576Z,100477.34
2022-10-23T19:29:13.135Z,100469.56
2022-10-23T19:31:43.126Z,100473.06
2022-10-23T19:34:09.497Z,100465.28
2022-10-23T19:36:35.965Z,100481.31
2022-10-23T19:39:02.276Z,100462.88
2022-10-23T19:41:30.582Z,100489.44
2022-10-23T19:43:56.895Z,100477.97
2022-10-23T19:46:23.224Z,100500.09
2022-10-23T19:48:49.598Z,100500.25
2022-10-23T19:51:16.000Z,100511.56
2022-10-23T19:53:42.607Z,100509.31
2022-10-23T19:56:11.028Z,100511.03
2022-10-23T19:58:38.050Z,100513.09
2022-10-23T20:01:14.502Z,100526.63
2022-10-23T20:03:42.598Z,100533.63
2022-10-23T20:06:10.672Z,100536.47
2022-10-23T20:08:37.232Z,100534.22
2022-10-23T20:11:03.726Z,100525.44
2022-10-23T20:13:30.353Z,100545.03
2022-10-23T20:15:56.677Z,100546.78
2022-10-23T20:18:23.095Z,100545.19
2022-10-23T20:20:49.485Z,100546.13
2022-10-23T20:23:15.826Z,100558.31
2022-10-23T20:25:42.199Z,100560.53
2022-10-23T20:28:10.336Z,100563.72
2022-10-23T20:30:41.176Z,100561.34
2022-10-23T20:33:07.497Z,100574.69
2022-10-23T20:35:41.416Z,100582.41
2022-10-23T20:38:08.483Z,100583.47
2022-10-23T20:40:34.903Z,100581.69
2022-10-23T20:43:01.421Z,100590.25
2022-10-23T20:45:27.827Z,100591.78
2022-10-23T20:47:54.156Z,100579.81
2022-10-23T20:50:20.821Z,100591.06
2022-10-23T20:52:50.240Z,100594.22
2022-10-23T20:55:16.711Z,100599.72
2022-10-23T20:57:43.171Z,100601.59
2022-10-23T21:00:11.297Z,100596.22
2022-10-23T21:02:37.755Z,100590.13
2022-10-23T21:05:04.380Z,100614.56
2022-10-23T21:07:30.718Z,100602.47
2022-10-23T21:09:57.120Z,100595.78
2022-10-23T21:12:23.423Z,100595.28
2022-10-23T21:14:49.765Z,100596.19
2022-10-23T21:17:17.719Z,100607.31
2022-10-23T21:19:44.246Z,100603.78
2022-10-23T21:22:10.620Z,100602.69
2022-10-23T21:24:36.935Z,100611.09
2022-10-23T21:27:03.292Z,100589.81
2022-10-23T21:29:29.654Z,100583.13
2022-10-23T21:31:58.678Z,100584.81
2022-10-23T21:34:26.249Z,100594.03
2022-10-23T21:39:39.373Z,100588.44
2022-10-23T21:42:05.860Z,100591.44
2022-10-23T21:44:32.412Z,100586.84
2022-10-23T21:46:58.776Z,100587.66
2022-10-23T21:49:25.101Z,100605.25
2022-10-23T21:51:51.444Z,100596.66
2022-10-23T21:54:17.792Z,100598.53
2022-10-23T21:56:49.435Z,100599.66
2022-10-23T21:59:18.134Z,100602.34
2022-10-23T22:01:45.943Z,100601.56
2022-10-23T22:04:14.351Z,100602.34
2022-10-23T22:06:42.857Z,100606.13
2022-10-23T22:09:13.606Z,100611.25
2022-10-23T22:11:40.746Z,100611.75
2022-10-23T22:14:07.390Z,100609.53
2022-10-23T22:16:34.002Z,100597.63
2022-10-23T22:19:00.360Z,100593.84
2022-10-23T22:21:29.441Z,100598.13
2022-10-23T22:23:58.234Z,100596.53
2022-10-23T22:26:26.235Z,100592.22
2022-10-23T22:28:54.993Z,100592.53
2022-10-23T22:31:24.536Z,100592.03
2022-10-23T22:33:51.664Z,100589.66
2022-10-23T22:36:18.617Z,100596.16
2022-10-23T22:38:45.206Z,100590.44
2022-10-23T22:41:11.899Z,100585.38
2022-10-23T22:43:38.360Z,100597.44
2022-10-23T22:46:14.015Z,100585.06
2022-10-23T22:48:40.721Z,100586.66
2022-10-23T22:51:09.129Z,100586.25
2022-10-23T22:53:35.676Z,100580.84
2022-10-23T22:56:06.128Z,100571.47
2022-10-23T22:58:32.500Z,100573.16
2022-10-23T23:01:21.164Z,100578.56
2022-10-23T23:03:48.107Z,100571.56
2022-10-23T23:06:15.369Z,100571.28
2022-10-23T23:08:42.268Z,100567.75
2022-10-23T23:11:12.075Z,100566.97
2022-10-23T23:13:39.105Z,100571.75
2022-10-23T23:16:05.749Z,100560.16
2022-10-23T23:18:33.340Z,100567.75
2022-10-23T23:21:04.300Z,100560.28
2022-10-23T23:23:30.971Z,100559.88
2022-10-23T23:25:57.393Z,100550.28
2022-10-23T23:28:24.024Z,100549.59
2022-10-23T23:30:50.800Z,100542.59
2022-10-23T23:33:22.175Z,100550.50
2022-10-23T23:35:48.551Z,100540.81
2022-10-23T23:38:14.887Z,100539.84
2022-10-23T23:40:49.265Z,100539.34
2022-10-23T23:43:15.585Z,100533.34
2022-10-23T23:45:41.931Z,100533.34
2022-10-23T23:48:08.275Z,100523.84
2022-10-23T23:50:34.608Z,100530.25
2022-10-23T23:53:00.976Z,100526.63
2022-10-23T23:55:27.330Z,100520.31
2022-10-23T23:57:53.689Z,100532.28
